sensor_id;sensor_type;location;lat;lon;timestamp;P1;durP1;ratioP1;P2;durP2;ratioP2
28653;SDS011;24320;56.980;24.336;2022-07-12T00:01:58;1.83;;;1.60;;
28653;SDS011;24320;56.980;24.336;2022-07-12T00:04:25;3.42;;;1.52;;
28653;SDS011;24320;56.980;24.336;2022-07-12T00:06:52;2.40;;;1.80;;
28653;SDS011;24320;56.980;24.336;2022-07-12T00:09:19;2.17;;;1.77;;
28653;SDS011;24320;56.980;24.336;2022-07-12T00:11:46;3.33;;;1.90;;
28653;SDS011;24320;56.980;24.336;2022-07-12T00:14:13;3.25;;;1.70;;
28653;SDS011;24320;56.980;24.336;2022-07-12T00:16:40;2.03;;;1.67;;
28653;SDS011;24320;56.980;24.336;2022-07-12T00:19:08;2.08;;;1.80;;
28653;SDS011;24320;56.980;24.336;2022-07-12T00:21:35;2.80;;;1.75;;
28653;SDS011;24320;56.980;24.336;2022-07-12T00:24:02;2.13;;;1.92;;
28653;SDS011;24320;56.980;24.336;2022-07-12T00:26:29;2.03;;;1.80;;
28653;SDS011;24320;56.980;24.336;2022-07-12T00:28:56;4.40;;;2.00;;
28653;SDS011;24320;56.980;24.336;2022-07-12T00:31:24;3.17;;;2.13;;
28653;SDS011;24320;56.980;24.336;2022-07-12T00:33:51;3.78;;;1.80;;
28653;SDS011;24320;56.980;24.336;2022-07-12T00:36:19;2.85;;;2.20;;
28653;SDS011;24320;56.980;24.336;2022-07-12T00:38:46;1.85;;;1.65;;
28653;SDS011;24320;56.980;24.336;2022-07-12T00:41:13;2.05;;;1.80;;
28653;SDS011;24320;56.980;24.336;2022-07-12T00:43:41;5.18;;;1.80;;
28653;SDS011;24320;56.980;24.336;2022-07-12T00:46:08;3.28;;;2.03;;
28653;SDS011;24320;56.980;24.336;2022-07-12T00:48:36;1.73;;;1.63;;
28653;SDS011;24320;56.980;24.336;2022-07-12T00:51:04;3.75;;;2.03;;
28653;SDS011;24320;56.980;24.336;2022-07-12T00:53:31;4.30;;;1.92;;
28653;SDS011;24320;56.980;24.336;2022-07-12T00:55:58;3.10;;;1.90;;
28653;SDS011;24320;56.980;24.336;2022-07-12T00:58:25;1.85;;;1.70;;
28653;SDS011;24320;56.980;24.336;2022-07-12T01:00:57;1.80;;;1.70;;
28653;SDS011;24320;56.980;24.336;2022-07-12T01:03:25;2.70;;;1.80;;
28653;SDS011;24320;56.980;24.336;2022-07-12T01:05:54;1.90;;;1.60;;
28653;SDS011;24320;56.980;24.336;2022-07-12T01:08:21;2.38;;;2.10;;
28653;SDS011;24320;56.980;24.336;2022-07-12T01:10:50;2.08;;;1.80;;
28653;SDS011;24320;56.980;24.336;2022-07-12T01:13:18;2.17;;;1.88;;
28653;SDS011;24320;56.980;24.336;2022-07-12T01:15:45;1.67;;;1.58;;
28653;SDS011;24320;56.980;24.336;2022-07-12T01:18:14;1.58;;;1.48;;
28653;SDS011;24320;56.980;24.336;2022-07-12T01:20:43;1.70;;;1.60;;
28653;SDS011;24320;56.980;24.336;2022-07-12T01:23:12;3.25;;;1.40;;
28653;SDS011;24320;56.980;24.336;2022-07-12T01:25:39;1.60;;;1.50;;
28653;SDS011;24320;56.980;24.336;2022-07-12T01:28:06;2.15;;;1.90;;
28653;SDS011;24320;56.980;24.336;2022-07-12T01:30:33;2.10;;;1.88;;
28653;SDS011;24320;56.980;24.336;2022-07-12T01:33:00;2.85;;;1.70;;
28653;SDS011;24320;56.980;24.336;2022-07-12T01:35:28;3.47;;;1.60;;
28653;SDS011;24320;56.980;24.336;2022-07-12T01:37:56;1.90;;;1.65;;
28653;SDS011;24320;56.980;24.336;2022-07-12T01:40:24;1.98;;;1.75;;
28653;SDS011;24320;56.980;24.336;2022-07-12T01:42:51;1.75;;;1.50;;
28653;SDS011;24320;56.980;24.336;2022-07-12T01:45:19;2.28;;;1.83;;
28653;SDS011;24320;56.980;24.336;2022-07-12T01:47:46;2.38;;;1.70;;
28653;SDS011;24320;56.980;24.336;2022-07-12T01:50:13;1.73;;;1.60;;
28653;SDS011;24320;56.980;24.336;2022-07-12T01:52:41;2.83;;;1.50;;
28653;SDS011;24320;56.980;24.336;2022-07-12T01:55:09;3.47;;;1.70;;
28653;SDS011;24320;56.980;24.336;2022-07-12T01:57:43;2.67;;;1.50;;
28653;SDS011;24320;56.980;24.336;2022-07-12T02:00:11;1.77;;;1.50;;
28653;SDS011;24320;56.980;24.336;2022-07-12T02:02:39;1.67;;;1.50;;
28653;SDS011;24320;56.980;24.336;2022-07-12T02:05:07;1.77;;;1.50;;
28653;SDS011;24320;56.980;24.336;2022-07-12T02:07:34;1.70;;;1.55;;
28653;SDS011;24320;56.980;24.336;2022-07-12T02:10:03;1.55;;;1.40;;
28653;SDS011;24320;56.980;24.336;2022-07-12T02:12:34;3.05;;;1.60;;
28653;SDS011;24320;56.980;24.336;2022-07-12T02:15:04;1.10;;;1.08;;
28653;SDS011;24320;56.980;24.336;2022-07-12T02:17:32;1.90;;;1.30;;
28653;SDS011;24320;56.980;24.336;2022-07-12T02:20:00;1.52;;;1.27;;
28653;SDS011;24320;56.980;24.336;2022-07-12T02:22:27;2.25;;;1.48;;
28653;SDS011;24320;56.980;24.336;2022-07-12T02:24:54;1.40;;;1.30;;
28653;SDS011;24320;56.980;24.336;2022-07-12T02:27:21;1.40;;;1.30;;
28653;SDS011;24320;56.980;24.336;2022-07-12T02:29:48;1.50;;;1.40;;
28653;SDS011;24320;56.980;24.336;2022-07-12T02:32:15;4.05;;;1.27;;
28653;SDS011;24320;56.980;24.336;2022-07-12T02:34:43;1.65;;;1.33;;
28653;SDS011;24320;56.980;24.336;2022-07-12T02:37:10;3.83;;;1.67;;
28653;SDS011;24320;56.980;24.336;2022-07-12T02:39:37;1.88;;;1.30;;
28653;SDS011;24320;56.980;24.336;2022-07-12T02:42:04;1.58;;;1.40;;
28653;SDS011;24320;56.980;24.336;2022-07-12T02:44:31;1.83;;;1.63;;
28653;SDS011;24320;56.980;24.336;2022-07-12T02:46:59;3.20;;;1.73;;
28653;SDS011;24320;56.980;24.336;2022-07-12T02:49:27;3.80;;;1.33;;
28653;SDS011;24320;56.980;24.336;2022-07-12T02:51:55;2.97;;;1.58;;
28653;SDS011;24320;56.980;24.336;2022-07-12T02:54:26;3.00;;;1.90;;
28653;SDS011;24320;56.980;24.336;2022-07-12T02:56:53;2.10;;;1.90;;
28653;SDS011;24320;56.980;24.336;2022-07-12T02:59:20;3.88;;;1.70;;
28653;SDS011;24320;56.980;24.336;2022-07-12T03:01:47;3.40;;;2.03;;
28653;SDS011;24320;56.980;24.336;2022-07-12T03:04:15;2.22;;;2.03;;
28653;SDS011;24320;56.980;24.336;2022-07-12T03:06:42;1.92;;;1.83;;
28653;SDS011;24320;56.980;24.336;2022-07-12T03:09:09;5.70;;;2.10;;
28653;SDS011;24320;56.980;24.336;2022-07-12T03:11:38;2.20;;;1.90;;
28653;SDS011;24320;56.980;24.336;2022-07-12T03:14:05;3.22;;;2.40;;
28653;SDS011;24320;56.980;24.336;2022-07-12T03:16:32;2.30;;;2.08;;
28653;SDS011;24320;56.980;24.336;2022-07-12T03:18:59;3.25;;;2.30;;
28653;SDS011;24320;56.980;24.336;2022-07-12T03:21:26;4.43;;;2.40;;
28653;SDS011;24320;56.980;24.336;2022-07-12T03:23:53;2.95;;;2.28;;
28653;SDS011;24320;56.980;24.336;2022-07-12T03:26:20;4.93;;;2.42;;
28653;SDS011;24320;56.980;24.336;2022-07-12T03:28:48;3.85;;;2.63;;
28653;SDS011;24320;56.980;24.336;2022-07-12T03:31:15;3.00;;;2.58;;
28653;SDS011;24320;56.980;24.336;2022-07-12T03:33:42;3.00;;;2.58;;
28653;SDS011;24320;56.980;24.336;2022-07-12T03:36:09;2.85;;;2.55;;
28653;SDS011;24320;56.980;24.336;2022-07-12T03:38:36;6.78;;;2.58;;
28653;SDS011;24320;56.980;24.336;2022-07-12T03:41:03;3.35;;;2.60;;
28653;SDS011;24320;56.980;24.336;2022-07-12T03:43:30;6.20;;;2.78;;
28653;SDS011;24320;56.980;24.336;2022-07-12T03:45:57;4.32;;;3.03;;
28653;SDS011;24320;56.980;24.336;2022-07-12T03:48:24;3.42;;;2.75;;
28653;SDS011;24320;56.980;24.336;2022-07-12T03:50:51;4.10;;;2.60;;
28653;SDS011;24320;56.980;24.336;2022-07-12T03:53:19;3.22;;;2.90;;
28653;SDS011;24320;56.980;24.336;2022-07-12T03:55:46;5.57;;;2.60;;
28653;SDS011;24320;56.980;24.336;2022-07-12T03:58:13;4.90;;;2.50;;
28653;SDS011;24320;56.980;24.336;2022-07-12T04:00:40;2.80;;;2.47;;
28653;SDS011;24320;56.980;24.336;2022-07-12T04:03:09;6.28;;;2.50;;
28653;SDS011;24320;56.980;24.336;2022-07-12T04:05:37;3.83;;;3.20;;
28653;SDS011;24320;56.980;24.336;2022-07-12T04:08:05;7.10;;;2.45;;
28653;SDS011;24320;56.980;24.336;2022-07-12T04:10:32;3.80;;;2.60;;
28653;SDS011;24320;56.980;24.336;2022-07-12T04:12:59;2.95;;;2.58;;
28653;SDS011;24320;56.980;24.336;2022-07-12T04:15:26;6.38;;;2.80;;
28653;SDS011;24320;56.980;24.336;2022-07-12T04:17:53;3.90;;;2.70;;
28653;SDS011;24320;56.980;24.336;2022-07-12T04:20:20;4.85;;;3.05;;
28653;SDS011;24320;56.980;24.336;2022-07-12T04:22:47;7.93;;;3.47;;
28653;SDS011;24320;56.980;24.336;2022-07-12T04:25:15;4.35;;;3.15;;
28653;SDS011;24320;56.980;24.336;2022-07-12T04:27:42;4.97;;;3.17;;
28653;SDS011;24320;56.980;24.336;2022-07-12T04:30:16;5.00;;;3.88;;
28653;SDS011;24320;56.980;24.336;2022-07-12T04:32:43;6.32;;;3.67;;
28653;SDS011;24320;56.980;24.336;2022-07-12T04:35:10;8.13;;;3.75;;
28653;SDS011;24320;56.980;24.336;2022-07-12T04:37:37;6.15;;;3.63;;
28653;SDS011;24320;56.980;24.336;2022-07-12T04:40:04;5.43;;;3.78;;
28653;SDS011;24320;56.980;24.336;2022-07-12T04:42:32;10.10;;;4.63;;
28653;SDS011;24320;56.980;24.336;2022-07-12T04:44:59;8.38;;;5.18;;
28653;SDS011;24320;56.980;24.336;2022-07-12T04:47:26;9.57;;;4.85;;
28653;SDS011;24320;56.980;24.336;2022-07-12T04:49:53;8.18;;;5.10;;
28653;SDS011;24320;56.980;24.336;2022-07-12T04:52:20;8.48;;;5.80;;
28653;SDS011;24320;56.980;24.336;2022-07-12T04:54:47;12.07;;;4.80;;
28653;SDS011;24320;56.980;24.336;2022-07-12T04:57:14;5.70;;;4.90;;
28653;SDS011;24320;56.980;24.336;2022-07-12T04:59:41;7.30;;;5.28;;
28653;SDS011;24320;56.980;24.336;2022-07-12T05:02:08;8.40;;;5.43;;
28653;SDS011;24320;56.980;24.336;2022-07-12T05:04:35;6.95;;;5.25;;
28653;SDS011;24320;56.980;24.336;2022-07-12T05:07:03;7.05;;;5.30;;
28653;SDS011;24320;56.980;24.336;2022-07-12T05:09:30;7.20;;;4.82;;
28653;SDS011;24320;56.980;24.336;2022-07-12T05:11:57;7.55;;;5.20;;
28653;SDS011;24320;56.980;24.336;2022-07-12T05:14:24;8.25;;;5.30;;
28653;SDS011;24320;56.980;24.336;2022-07-12T05:16:51;9.52;;;5.57;;
28653;SDS011;24320;56.980;24.336;2022-07-12T05:19:18;7.05;;;5.32;;
28653;SDS011;24320;56.980;24.336;2022-07-12T05:21:45;6.95;;;5.03;;
28653;SDS011;24320;56.980;24.336;2022-07-12T05:24:12;7.70;;;4.82;;
28653;SDS011;24320;56.980;24.336;2022-07-12T05:26:39;8.20;;;5.50;;
28653;SDS011;24320;56.980;24.336;2022-07-12T05:29:07;11.82;;;5.35;;
28653;SDS011;24320;56.980;24.336;2022-07-12T05:31:35;6.20;;;5.18;;
28653;SDS011;24320;56.980;24.336;2022-07-12T05:34:02;9.75;;;5.70;;
28653;SDS011;24320;56.980;24.336;2022-07-12T05:36:29;8.80;;;5.78;;
28653;SDS011;24320;56.980;24.336;2022-07-12T05:38:56;9.18;;;5.93;;
28653;SDS011;24320;56.980;24.336;2022-07-12T05:41:24;7.93;;;5.60;;
28653;SDS011;24320;56.980;24.336;2022-07-12T05:43:51;7.85;;;5.75;;
28653;SDS011;24320;56.980;24.336;2022-07-12T05:46:18;7.57;;;5.93;;
28653;SDS011;24320;56.980;24.336;2022-07-12T05:48:45;11.20;;;6.20;;
28653;SDS011;24320;56.980;24.336;2022-07-12T05:51:12;9.50;;;6.00;;
28653;SDS011;24320;56.980;24.336;2022-07-12T05:53:58;10.60;;;6.53;;
28653;SDS011;24320;56.980;24.336;2022-07-12T05:56:25;8.15;;;5.85;;
28653;SDS011;24320;56.980;24.336;2022-07-12T05:58:52;7.60;;;5.65;;
28653;SDS011;24320;56.980;24.336;2022-07-12T06:01:19;7.93;;;5.72;;
28653;SDS011;24320;56.980;24.336;2022-07-12T06:03:46;8.85;;;6.28;;
28653;SDS011;24320;56.980;24.336;2022-07-12T06:06:13;6.88;;;4.88;;
28653;SDS011;24320;56.980;24.336;2022-07-12T06:08:40;6.88;;;4.45;;
28653;SDS011;24320;56.980;24.336;2022-07-12T06:11:07;7.72;;;4.72;;
28653;SDS011;24320;56.980;24.336;2022-07-12T06:13:34;6.35;;;4.68;;
28653;SDS011;24320;56.980;24.336;2022-07-12T06:16:01;7.10;;;4.90;;
28653;SDS011;24320;56.980;24.336;2022-07-12T06:18:35;11.40;;;4.95;;
28653;SDS011;24320;56.980;24.336;2022-07-12T06:21:03;8.75;;;5.05;;
28653;SDS011;24320;56.980;24.336;2022-07-12T06:23:30;5.47;;;4.60;;
28653;SDS011;24320;56.980;24.336;2022-07-12T06:25:57;8.77;;;4.85;;
28653;SDS011;24320;56.980;24.336;2022-07-12T06:28:24;7.40;;;4.78;;
28653;SDS011;24320;56.980;24.336;2022-07-12T06:30:51;7.75;;;4.82;;
28653;SDS011;24320;56.980;24.336;2022-07-12T06:33:18;6.28;;;4.60;;
28653;SDS011;24320;56.980;24.336;2022-07-12T06:35:46;6.25;;;4.72;;
28653;SDS011;24320;56.980;24.336;2022-07-12T06:38:12;5.65;;;4.68;;
28653;SDS011;24320;56.980;24.336;2022-07-12T06:40:40;6.03;;;4.32;;
28653;SDS011;24320;56.980;24.336;2022-07-12T06:43:10;5.68;;;4.50;;
28653;SDS011;24320;56.980;24.336;2022-07-12T06:45:38;5.53;;;4.22;;
28653;SDS011;24320;56.980;24.336;2022-07-12T06:48:06;5.70;;;4.32;;
28653;SDS011;24320;56.980;24.336;2022-07-12T06:50:33;5.45;;;4.28;;
28653;SDS011;24320;56.980;24.336;2022-07-12T06:53:00;5.95;;;4.65;;
28653;SDS011;24320;56.980;24.336;2022-07-12T06:55:27;5.70;;;4.18;;
28653;SDS011;24320;56.980;24.336;2022-07-12T06:57:54;7.20;;;4.38;;
28653;SDS011;24320;56.980;24.336;2022-07-12T07:00:22;8.95;;;4.50;;
28653;SDS011;24320;56.980;24.336;2022-07-12T07:02:49;6.82;;;4.78;;
28653;SDS011;24320;56.980;24.336;2022-07-12T07:05:17;5.75;;;4.53;;
28653;SDS011;24320;56.980;24.336;2022-07-12T07:07:45;7.88;;;4.70;;
28653;SDS011;24320;56.980;24.336;2022-07-12T07:10:12;6.25;;;4.47;;
28653;SDS011;24320;56.980;24.336;2022-07-12T07:12:39;7.07;;;4.72;;
28653;SDS011;24320;56.980;24.336;2022-07-12T07:15:06;5.30;;;4.18;;
28653;SDS011;24320;56.980;24.336;2022-07-12T07:17:34;7.43;;;4.28;;
28653;SDS011;24320;56.980;24.336;2022-07-12T07:20:01;5.10;;;4.00;;
28653;SDS011;24320;56.980;24.336;2022-07-12T07:22:28;6.90;;;4.53;;
28653;SDS011;24320;56.980;24.336;2022-07-12T07:24:55;5.72;;;4.45;;
28653;SDS011;24320;56.980;24.336;2022-07-12T07:27:22;7.28;;;4.05;;
28653;SDS011;24320;56.980;24.336;2022-07-12T07:29:49;5.65;;;4.15;;
28653;SDS011;24320;56.980;24.336;2022-07-12T07:32:42;4.53;;;3.90;;
28653;SDS011;24320;56.980;24.336;2022-07-12T07:35:14;5.75;;;4.13;;
28653;SDS011;24320;56.980;24.336;2022-07-12T07:37:41;5.03;;;4.13;;
28653;SDS011;24320;56.980;24.336;2022-07-12T07:40:09;5.13;;;4.13;;
28653;SDS011;24320;56.980;24.336;2022-07-12T07:42:36;6.30;;;4.30;;
28653;SDS011;24320;56.980;24.336;2022-07-12T07:45:03;5.35;;;4.38;;
28653;SDS011;24320;56.980;24.336;2022-07-12T07:47:48;5.25;;;4.38;;
28653;SDS011;24320;56.980;24.336;2022-07-12T07:50:35;6.82;;;4.20;;
28653;SDS011;24320;56.980;24.336;2022-07-12T07:53:03;6.20;;;4.40;;
28653;SDS011;24320;56.980;24.336;2022-07-12T07:55:31;6.07;;;4.35;;
28653;SDS011;24320;56.980;24.336;2022-07-12T07:57:58;5.80;;;4.50;;
28653;SDS011;24320;56.980;24.336;2022-07-12T08:00:27;6.75;;;4.75;;
28653;SDS011;24320;56.980;24.336;2022-07-12T08:02:57;7.00;;;5.07;;
28653;SDS011;24320;56.980;24.336;2022-07-12T08:05:24;7.75;;;5.38;;
28653;SDS011;24320;56.980;24.336;2022-07-12T08:07:54;7.32;;;4.75;;
28653;SDS011;24320;56.980;24.336;2022-07-12T08:10:22;7.00;;;5.13;;
28653;SDS011;24320;56.980;24.336;2022-07-12T08:12:49;7.80;;;5.28;;
28653;SDS011;24320;56.980;24.336;2022-07-12T08:15:17;8.40;;;5.30;;
28653;SDS011;24320;56.980;24.336;2022-07-12T08:17:44;11.70;;;6.45;;
28653;SDS011;24320;56.980;24.336;2022-07-12T08:20:18;7.22;;;5.78;;
28653;SDS011;24320;56.980;24.336;2022-07-12T08:23:06;6.88;;;5.10;;
28653;SDS011;24320;56.980;24.336;2022-07-12T08:25:33;6.95;;;5.43;;
28653;SDS011;24320;56.980;24.336;2022-07-12T08:28:00;7.53;;;5.25;;
28653;SDS011;24320;56.980;24.336;2022-07-12T08:30:27;6.88;;;5.38;;
28653;SDS011;24320;56.980;24.336;2022-07-12T08:32:55;7.60;;;5.53;;
28653;SDS011;24320;56.980;24.336;2022-07-12T08:35:22;7.32;;;5.70;;
28653;SDS011;24320;56.980;24.336;2022-07-12T08:37:49;8.88;;;6.32;;
28653;SDS011;24320;56.980;24.336;2022-07-12T08:40:17;8.50;;;5.95;;
28653;SDS011;24320;56.980;24.336;2022-07-12T08:42:44;8.27;;;6.10;;
28653;SDS011;24320;56.980;24.336;2022-07-12T08:45:13;6.85;;;5.40;;
28653;SDS011;24320;56.980;24.336;2022-07-12T08:47:41;8.52;;;6.47;;
28653;SDS011;24320;56.980;24.336;2022-07-12T08:50:12;7.55;;;6.07;;
28653;SDS011;24320;56.980;24.336;2022-07-12T08:52:49;8.27;;;6.13;;
28653;SDS011;24320;56.980;24.336;2022-07-12T08:55:24;8.90;;;6.07;;
28653;SDS011;24320;56.980;24.336;2022-07-12T08:57:57;8.85;;;6.50;;
28653;SDS011;24320;56.980;24.336;2022-07-12T09:00:26;10.05;;;6.43;;
28653;SDS011;24320;56.980;24.336;2022-07-12T09:02:55;9.05;;;6.53;;
28653;SDS011;24320;56.980;24.336;2022-07-12T09:05:24;9.60;;;6.43;;
28653;SDS011;24320;56.980;24.336;2022-07-12T09:08:05;9.27;;;7.10;;
28653;SDS011;24320;56.980;24.336;2022-07-12T09:13:15;9.10;;;6.43;;
28653;SDS011;24320;56.980;24.336;2022-07-12T09:15:45;9.20;;;7.18;;
28653;SDS011;24320;56.980;24.336;2022-07-12T09:18:17;9.90;;;6.70;;
28653;SDS011;24320;56.980;24.336;2022-07-12T09:20:52;10.68;;;6.82;;
28653;SDS011;24320;56.980;24.336;2022-07-12T09:23:19;9.67;;;6.63;;
28653;SDS011;24320;56.980;24.336;2022-07-12T09:25:46;8.73;;;6.63;;
28653;SDS011;24320;56.980;24.336;2022-07-12T09:28:15;10.32;;;6.72;;
28653;SDS011;24320;56.980;24.336;2022-07-12T09:30:46;8.30;;;6.80;;
28653;SDS011;24320;56.980;24.336;2022-07-12T09:33:19;11.35;;;7.75;;
28653;SDS011;24320;56.980;24.336;2022-07-12T09:36:06;124.10;;;42.90;;
28653;SDS011;24320;56.980;24.336;2022-07-12T09:38:34;161.85;;;48.55;;
28653;SDS011;24320;56.980;24.336;2022-07-12T09:41:11;689.85;;;209.70;;
28653;SDS011;24320;56.980;24.336;2022-07-12T09:43:44;497.70;;;146.70;;
28653;SDS011;24320;56.980;24.336;2022-07-12T09:46:13;399.58;;;119.05;;
28653;SDS011;24320;56.980;24.336;2022-07-12T09:48:40;72.50;;;31.90;;
28653;SDS011;24320;56.980;24.336;2022-07-12T09:51:09;134.77;;;48.85;;
28653;SDS011;24320;56.980;24.336;2022-07-12T09:56:14;373.98;;;132.73;;
28653;SDS011;24320;56.980;24.336;2022-07-12T10:01:18;131.73;;;55.55;;
28653;SDS011;24320;56.980;24.336;2022-07-12T10:03:47;93.60;;;44.42;;
28653;SDS011;24320;56.980;24.336;2022-07-12T10:06:25;129.88;;;63.08;;
28653;SDS011;24320;56.980;24.336;2022-07-12T10:09:00;43.10;;;23.98;;
28653;SDS011;24320;56.980;24.336;2022-07-12T10:11:29;38.50;;;25.67;;
28653;SDS011;24320;56.980;24.336;2022-07-12T10:14:17;15.48;;;10.60;;
28653;SDS011;24320;56.980;24.336;2022-07-12T10:16:46;27.23;;;20.83;;
28653;SDS011;24320;56.980;24.336;2022-07-12T10:19:22;11.50;;;8.07;;
28653;SDS011;24320;56.980;24.336;2022-07-12T10:21:59;8.65;;;6.68;;
28653;SDS011;24320;56.980;24.336;2022-07-12T10:27:26;10.10;;;6.88;;
28653;SDS011;24320;56.980;24.336;2022-07-12T10:29:48;15.10;;;9.07;;
28653;SDS011;24320;56.980;24.336;2022-07-12T10:32:21;11.68;;;8.50;;
28653;SDS011;24320;56.980;24.336;2022-07-12T10:34:59;11.15;;;7.88;;
28653;SDS011;24320;56.980;24.336;2022-07-12T10:37:34;11.80;;;8.60;;
28653;SDS011;24320;56.980;24.336;2022-07-12T10:40:15;9.63;;;7.47;;
28653;SDS011;24320;56.980;24.336;2022-07-12T10:45:44;8.05;;;6.15;;
28653;SDS011;24320;56.980;24.336;2022-07-12T10:53:36;10.63;;;6.90;;
28653;SDS011;24320;56.980;24.336;2022-07-12T10:56:23;10.90;;;7.32;;
28653;SDS011;24320;56.980;24.336;2022-07-12T11:01:26;7.75;;;6.03;;
28653;SDS011;24320;56.980;24.336;2022-07-12T11:06:33;7.60;;;5.75;;
28653;SDS011;24320;56.980;24.336;2022-07-12T11:09:03;6.90;;;5.88;;
28653;SDS011;24320;56.980;24.336;2022-07-12T11:11:32;6.25;;;5.22;;
28653;SDS011;24320;56.980;24.336;2022-07-12T11:14:11;9.85;;;5.78;;
28653;SDS011;24320;56.980;24.336;2022-07-12T11:16:47;8.70;;;6.10;;
28653;SDS011;24320;56.980;24.336;2022-07-12T11:19:14;7.72;;;5.30;;
28653;SDS011;24320;56.980;24.336;2022-07-12T11:21:45;6.90;;;5.85;;
28653;SDS011;24320;56.980;24.336;2022-07-12T11:24:16;6.72;;;5.30;;
28653;SDS011;24320;56.980;24.336;2022-07-12T11:26:43;8.27;;;5.57;;
28653;SDS011;24320;56.980;24.336;2022-07-12T11:29:11;7.82;;;5.35;;
28653;SDS011;24320;56.980;24.336;2022-07-12T11:31:38;6.53;;;5.13;;
28653;SDS011;24320;56.980;24.336;2022-07-12T11:34:06;7.95;;;5.55;;
28653;SDS011;24320;56.980;24.336;2022-07-12T11:36:33;9.95;;;5.93;;
28653;SDS011;24320;56.980;24.336;2022-07-12T11:39:00;7.65;;;5.38;;
28653;SDS011;24320;56.980;24.336;2022-07-12T11:41:27;7.18;;;5.70;;
28653;SDS011;24320;56.980;24.336;2022-07-12T11:43:54;7.30;;;5.70;;
28653;SDS011;24320;56.980;24.336;2022-07-12T11:46:21;8.13;;;5.47;;
28653;SDS011;24320;56.980;24.336;2022-07-12T11:48:48;11.20;;;5.82;;
28653;SDS011;24320;56.980;24.336;2022-07-12T11:51:15;8.70;;;6.18;;
28653;SDS011;24320;56.980;24.336;2022-07-12T11:53:43;6.93;;;5.50;;
28653;SDS011;24320;56.980;24.336;2022-07-12T11:56:10;7.70;;;5.32;;
28653;SDS011;24320;56.980;24.336;2022-07-12T11:58:37;9.57;;;6.47;;
28653;SDS011;24320;56.980;24.336;2022-07-12T12:01:09;7.75;;;5.85;;
28653;SDS011;24320;56.980;24.336;2022-07-12T12:03:44;8.82;;;5.90;;
28653;SDS011;24320;56.980;24.336;2022-07-12T12:06:12;10.07;;;5.85;;
28653;SDS011;24320;56.980;24.336;2022-07-12T12:08:41;11.05;;;6.15;;
28653;SDS011;24320;56.980;24.336;2022-07-12T12:11:08;8.15;;;5.75;;
28653;SDS011;24320;56.980;24.336;2022-07-12T12:13:35;8.05;;;6.35;;
28653;SDS011;24320;56.980;24.336;2022-07-12T12:16:03;8.75;;;5.85;;
28653;SDS011;24320;56.980;24.336;2022-07-12T12:18:33;8.88;;;5.95;;
28653;SDS011;24320;56.980;24.336;2022-07-12T12:21:08;7.20;;;5.85;;
28653;SDS011;24320;56.980;24.336;2022-07-12T12:23:37;7.95;;;6.03;;
28653;SDS011;24320;56.980;24.336;2022-07-12T12:26:09;8.38;;;5.95;;
28653;SDS011;24320;56.980;24.336;2022-07-12T12:28:45;19.23;;;9.30;;
28653;SDS011;24320;56.980;24.336;2022-07-12T12:31:17;9.65;;;7.05;;
28653;SDS011;24320;56.980;24.336;2022-07-12T12:33:46;11.75;;;8.18;;
28653;SDS011;24320;56.980;24.336;2022-07-12T12:36:26;8.50;;;6.20;;
28653;SDS011;24320;56.980;24.336;2022-07-12T12:38:56;6.65;;;5.78;;
28653;SDS011;24320;56.980;24.336;2022-07-12T12:41:25;8.63;;;6.43;;
28653;SDS011;24320;56.980;24.336;2022-07-12T12:44:01;7.38;;;5.93;;
28653;SDS011;24320;56.980;24.336;2022-07-12T12:52:23;8.20;;;5.25;;
28653;SDS011;24320;56.980;24.336;2022-07-12T12:54:52;8.15;;;5.50;;
28653;SDS011;24320;56.980;24.336;2022-07-12T12:57:19;7.55;;;5.82;;
28653;SDS011;24320;56.980;24.336;2022-07-12T12:59:48;8.25;;;5.35;;
28653;SDS011;24320;56.980;24.336;2022-07-12T13:02:15;8.68;;;5.45;;
28653;SDS011;24320;56.980;24.336;2022-07-12T13:04:43;6.63;;;5.30;;
28653;SDS011;24320;56.980;24.336;2022-07-12T13:07:10;6.47;;;5.38;;
28653;SDS011;24320;56.980;24.336;2022-07-12T13:09:39;7.32;;;5.30;;
28653;SDS011;24320;56.980;24.336;2022-07-12T13:12:06;6.95;;;5.10;;
28653;SDS011;24320;56.980;24.336;2022-07-12T13:14:34;6.60;;;5.30;;
28653;SDS011;24320;56.980;24.336;2022-07-12T13:17:01;8.70;;;5.72;;
28653;SDS011;24320;56.980;24.336;2022-07-12T13:19:29;6.05;;;5.43;;
28653;SDS011;24320;56.980;24.336;2022-07-12T13:21:58;6.75;;;5.47;;
28653;SDS011;24320;56.980;24.336;2022-07-12T13:24:26;5.40;;;4.78;;
28653;SDS011;24320;56.980;24.336;2022-07-12T13:26:53;6.60;;;5.07;;
28653;SDS011;24320;56.980;24.336;2022-07-12T13:29:20;6.10;;;5.20;;
28653;SDS011;24320;56.980;24.336;2022-07-12T13:31:47;7.13;;;4.75;;
28653;SDS011;24320;56.980;24.336;2022-07-12T13:34:21;6.15;;;5.38;;
28653;SDS011;24320;56.980;24.336;2022-07-12T13:36:48;7.35;;;5.15;;
28653;SDS011;24320;56.980;24.336;2022-07-12T13:39:15;7.70;;;5.22;;
28653;SDS011;24320;56.980;24.336;2022-07-12T13:42:01;9.23;;;5.53;;
28653;SDS011;24320;56.980;24.336;2022-07-12T13:44:28;8.93;;;5.38;;
28653;SDS011;24320;56.980;24.336;2022-07-12T13:46:55;8.02;;;5.97;;
28653;SDS011;24320;56.980;24.336;2022-07-12T13:49:22;7.13;;;5.50;;
28653;SDS011;24320;56.980;24.336;2022-07-12T13:51:50;8.93;;;6.30;;
28653;SDS011;24320;56.980;24.336;2022-07-12T13:54:17;8.50;;;5.90;;
28653;SDS011;24320;56.980;24.336;2022-07-12T13:56:45;8.32;;;5.30;;
28653;SDS011;24320;56.980;24.336;2022-07-12T13:59:13;10.20;;;6.18;;
28653;SDS011;24320;56.980;24.336;2022-07-12T14:01:40;8.88;;;6.07;;
28653;SDS011;24320;56.980;24.336;2022-07-12T14:04:08;10.25;;;6.13;;
28653;SDS011;24320;56.980;24.336;2022-07-12T14:06:35;8.80;;;6.50;;
28653;SDS011;24320;56.980;24.336;2022-07-12T14:09:03;7.15;;;5.50;;
28653;SDS011;24320;56.980;24.336;2022-07-12T14:14:54;7.57;;;5.63;;
28653;SDS011;24320;56.980;24.336;2022-07-12T14:17:39;9.18;;;5.40;;
28653;SDS011;24320;56.980;24.336;2022-07-12T14:20:07;7.63;;;5.40;;
28653;SDS011;24320;56.980;24.336;2022-07-12T14:22:35;8.40;;;5.63;;
28653;SDS011;24320;56.980;24.336;2022-07-12T14:25:03;7.47;;;5.90;;
28653;SDS011;24320;56.980;24.336;2022-07-12T14:27:31;8.98;;;6.30;;
28653;SDS011;24320;56.980;24.336;2022-07-12T14:29:59;10.05;;;5.93;;
28653;SDS011;24320;56.980;24.336;2022-07-12T14:32:26;9.25;;;6.30;;
28653;SDS011;24320;56.980;24.336;2022-07-12T14:34:53;8.13;;;5.97;;
28653;SDS011;24320;56.980;24.336;2022-07-12T14:37:20;7.78;;;6.20;;
28653;SDS011;24320;56.980;24.336;2022-07-12T14:39:47;7.57;;;5.90;;
28653;SDS011;24320;56.980;24.336;2022-07-12T14:42:17;7.15;;;5.35;;
28653;SDS011;24320;56.980;24.336;2022-07-12T14:44:44;8.45;;;5.90;;
28653;SDS011;24320;56.980;24.336;2022-07-12T14:47:18;6.90;;;5.85;;
28653;SDS011;24320;56.980;24.336;2022-07-12T14:49:46;6.80;;;5.60;;
28653;SDS011;24320;56.980;24.336;2022-07-12T14:52:13;8.80;;;5.75;;
28653;SDS011;24320;56.980;24.336;2022-07-12T14:54:41;10.88;;;5.97;;
28653;SDS011;24320;56.980;24.336;2022-07-12T14:57:08;8.32;;;5.63;;
28653;SDS011;24320;56.980;24.336;2022-07-12T14:59:35;8.70;;;6.15;;
28653;SDS011;24320;56.980;24.336;2022-07-12T15:02:02;8.30;;;6.03;;
28653;SDS011;24320;56.980;24.336;2022-07-12T15:04:29;7.18;;;6.15;;
28653;SDS011;24320;56.980;24.336;2022-07-12T15:06:57;7.50;;;6.18;;
28653;SDS011;24320;56.980;24.336;2022-07-12T15:09:24;8.18;;;6.13;;
28653;SDS011;24320;56.980;24.336;2022-07-12T15:11:51;8.80;;;6.32;;
28653;SDS011;24320;56.980;24.336;2022-07-12T15:14:18;8.63;;;6.10;;